createdAt,value
2018-09-19T00:01:01.416Z,94.30
2018-09-19T00:03:30.136Z,94.60
2018-09-19T00:05:59.033Z,94.70
2018-09-19T00:08:28.229Z,94.90
2018-09-19T00:10:57.579Z,95.10
2018-09-19T00:13:26.332Z,95.30
2018-09-19T00:15:55.321Z,95.30
2018-09-19T00:18:23.902Z,95.40
2018-09-19T00:20:52.475Z,95.70
2018-09-19T00:23:21.090Z,95.60
2018-09-19T00:25:55.336Z,95.70
2018-09-19T00:28:24.021Z,95.70
2018-09-19T00:30:52.744Z,95.60
2018-09-19T00:33:21.601Z,95.70
2018-09-19T00:35:50.384Z,95.70
2018-09-19T00:38:19.104Z,95.60
2018-09-19T00:40:47.844Z,95.60
2018-09-19T00:43:16.573Z,95.60
2018-09-19T00:45:45.190Z,95.30
2018-09-19T00:48:13.936Z,95.30
2018-09-19T00:50:42.694Z,95.20
2018-09-19T00:53:11.910Z,95.20
2018-09-19T00:55:40.653Z,94.70
2018-09-19T00:58:09.315Z,94.80
2018-09-19T01:00:37.991Z,95.00
2018-09-19T01:03:06.636Z,95.20
2018-09-19T01:05:35.398Z,95.00
2018-09-19T01:08:04.208Z,95.00
2018-09-19T01:10:32.976Z,94.90
2018-09-19T01:13:01.745Z,94.80
2018-09-19T01:15:31.041Z,94.20
2018-09-19T01:17:59.701Z,94.40
2018-09-19T01:20:28.300Z,94.40
2018-09-19T01:22:56.870Z,94.50
2018-09-19T01:25:25.560Z,94.60
2018-09-19T01:27:54.221Z,94.80
2018-09-19T01:30:22.955Z,94.90
2018-09-19T01:32:52.357Z,95.10
2018-09-19T01:35:21.591Z,95.10
2018-09-19T01:37:50.376Z,95.00
2018-09-19T01:40:19.176Z,94.90
2018-09-19T01:42:47.889Z,94.90
2018-09-19T01:45:16.596Z,95.10
2018-09-19T01:47:45.227Z,95.30
2018-09-19T01:50:14.352Z,95.40
2018-09-19T01:52:43.138Z,95.50
2018-09-19T01:55:11.877Z,95.50
2018-09-19T01:57:40.676Z,95.60
2018-09-19T02:00:09.335Z,95.60
2018-09-19T02:02:38.104Z,95.40
2018-09-19T02:05:07.113Z,96.10
2018-09-19T02:07:36.219Z,95.40
2018-09-19T02:10:05.037Z,95.50
2018-09-19T02:12:33.852Z,95.50
2018-09-19T02:15:02.748Z,95.70
2018-09-19T02:17:32.390Z,95.60
2018-09-19T02:20:01.031Z,95.60
2018-09-19T02:22:29.638Z,95.60
2018-09-19T02:24:58.305Z,95.70
2018-09-19T02:27:27.015Z,95.60
2018-09-19T02:29:55.733Z,95.40
2018-09-19T02:32:24.413Z,95.80
2018-09-19T02:34:53.121Z,96.10
2018-09-19T02:37:21.832Z,95.50
2018-09-19T02:39:50.545Z,95.00
2018-09-19T02:42:19.244Z,94.70
2018-09-19T02:44:47.912Z,94.60
2018-09-19T02:47:16.555Z,94.80
2018-09-19T02:49:45.272Z,94.60
2018-09-19T02:52:13.969Z,94.40
2018-09-19T02:54:42.561Z,94.60
2018-09-19T02:57:11.146Z,94.80
2018-09-19T02:59:39.773Z,94.90
2018-09-19T03:02:08.359Z,94.80
2018-09-19T03:04:37.848Z,94.80
2018-09-19T03:07:06.442Z,94.50
2018-09-19T03:09:35.034Z,94.50
2018-09-19T03:12:03.991Z,94.70
2018-09-19T03:14:32.588Z,95.10
2018-09-19T03:17:01.243Z,94.70
2018-09-19T03:19:29.804Z,94.80
2018-09-19T03:21:58.351Z,95.00
2018-09-19T03:24:27.412Z,95.10
2018-09-19T03:26:56.118Z,95.40
2018-09-19T03:29:24.824Z,95.30
2018-09-19T03:31:53.538Z,95.20
2018-09-19T03:34:22.177Z,95.30
2018-09-19T03:36:50.868Z,95.40
2018-09-19T03:39:19.575Z,95.40
2018-09-19T03:41:48.896Z,95.50
2018-09-19T03:44:17.564Z,95.80
2018-09-19T03:46:46.261Z,95.70
2018-09-19T03:49:14.986Z,95.70
2018-09-19T03:51:44.325Z,95.80
2018-09-19T03:54:13.009Z,95.90
2018-09-19T03:56:41.708Z,95.90
2018-09-19T03:59:10.368Z,96.00
2018-09-19T04:01:39.350Z,96.00
2018-09-19T04:04:08.010Z,96.00
2018-09-19T04:06:36.682Z,96.30
2018-09-19T04:09:10.366Z,96.30
2018-09-19T04:11:39.341Z,96.30
2018-09-19T04:14:08.916Z,96.30
2018-09-19T04:16:37.858Z,96.20
2018-09-19T04:19:06.557Z,96.20
2018-09-19T04:21:40.184Z,96.30
2018-09-19T04:24:08.935Z,96.20
2018-09-19T04:26:37.527Z,96.20
2018-09-19T04:29:06.266Z,96.10
2018-09-19T04:31:34.838Z,96.30
2018-09-19T04:34:03.561Z,96.30
2018-09-19T04:36:32.335Z,96.30
2018-09-19T04:39:01.061Z,96.30
2018-09-19T04:41:29.836Z,96.30
2018-09-19T04:43:58.434Z,96.50
2018-09-19T04:46:27.073Z,96.30
2018-09-19T04:48:56.267Z,96.10
2018-09-19T04:51:25.163Z,96.10
2018-09-19T04:53:54.185Z,96.10
2018-09-19T04:56:22.911Z,96.20
2018-09-19T04:58:53.397Z,96.10
2018-09-19T05:01:22.213Z,96.00
2018-09-19T05:03:50.996Z,96.10
2018-09-19T05:06:19.760Z,96.00
2018-09-19T05:08:48.546Z,96.00
2018-09-19T05:11:17.414Z,96.00
2018-09-19T05:13:46.343Z,95.90
2018-09-19T05:16:15.118Z,95.90
2018-09-19T05:18:43.873Z,95.90
2018-09-19T05:21:12.671Z,96.10
2018-09-19T05:23:42.067Z,95.90
2018-09-19T05:26:10.806Z,95.90
2018-09-19T05:28:39.452Z,95.90
2018-09-19T05:31:08.213Z,95.90
2018-09-19T05:33:36.824Z,95.90
2018-09-19T05:36:05.517Z,95.90
2018-09-19T05:38:34.146Z,95.90
2018-09-19T05:41:03.230Z,95.80
2018-09-19T05:43:31.912Z,95.60
2018-09-19T05:46:00.710Z,95.30
2018-09-19T05:48:29.456Z,95.40
2018-09-19T05:50:59.139Z,95.30
2018-09-19T05:53:28.093Z,95.30
2018-09-19T05:55:56.792Z,95.10
2018-09-19T05:58:25.847Z,94.70
2018-09-19T06:00:54.738Z,93.60
2018-09-19T06:03:23.536Z,93.40
2018-09-19T06:05:52.281Z,93.60
2018-09-19T06:08:20.963Z,93.50
2018-09-19T06:10:50.581Z,93.60
2018-09-19T06:13:19.240Z,93.70
2018-09-19T06:15:48.394Z,94.00
2018-09-19T06:18:17.240Z,93.80
2018-09-19T06:20:46.127Z,93.50
2018-09-19T06:23:14.893Z,94.00
2018-09-19T06:25:43.628Z,92.90
2018-09-19T06:28:12.354Z,93.20
2018-09-19T06:30:41.326Z,93.60
2018-09-19T06:33:10.219Z,93.30
2018-09-19T06:35:38.776Z,92.60
2018-09-19T06:38:07.504Z,92.60
2018-09-19T06:40:36.341Z,92.60
2018-09-19T06:43:05.257Z,93.00
2018-09-19T06:45:33.960Z,91.50
2018-09-19T06:48:02.579Z,90.20
2018-09-19T06:50:31.219Z,90.80
2018-09-19T06:52:59.901Z,90.80
2018-09-19T06:55:28.673Z,90.40
2018-09-19T06:57:58.041Z,91.30
2018-09-19T07:00:26.741Z,90.90
2018-09-19T07:02:55.441Z,90.10
2018-09-19T07:05:24.149Z,87.90
2018-09-19T07:07:52.866Z,87.80
2018-09-19T07:10:21.648Z,87.60
2018-09-19T07:12:50.281Z,87.00
2018-09-19T07:15:18.891Z,85.10
2018-09-19T07:17:47.481Z,85.50
2018-09-19T07:20:16.103Z,85.40
2018-09-19T07:22:44.699Z,84.60
2018-09-19T07:25:13.419Z,85.00
2018-09-19T07:27:42.316Z,84.20
2018-09-19T07:30:11.346Z,83.30
2018-09-19T07:32:39.937Z,84.00
2018-09-19T07:35:08.551Z,83.40
2018-09-19T07:37:37.195Z,82.80
2018-09-19T07:40:05.891Z,82.40
2018-09-19T07:42:34.496Z,83.50
2018-09-19T07:45:03.230Z,83.50
2018-09-19T07:47:31.925Z,85.10
2018-09-19T07:50:01.170Z,84.00
2018-09-19T07:52:29.871Z,84.00
2018-09-19T07:54:58.574Z,82.80
2018-09-19T07:57:27.291Z,83.50
2018-09-19T07:59:55.994Z,83.70
2018-09-19T08:02:24.678Z,83.00
2018-09-19T08:04:53.860Z,82.00
2018-09-19T08:07:22.450Z,81.10
2018-09-19T08:09:51.085Z,79.60
2018-09-19T08:12:19.660Z,79.20
2018-09-19T08:14:48.840Z,79.00
2018-09-19T08:17:17.404Z,78.20
2018-09-19T08:19:46.025Z,77.50
2018-09-19T08:22:14.694Z,77.40
2018-09-19T08:24:43.373Z,75.80
2018-09-19T08:27:12.100Z,75.70
2018-09-19T08:29:40.769Z,74.60
2018-09-19T08:32:09.439Z,73.80
2018-09-19T08:34:38.126Z,73.30
2018-09-19T08:37:06.805Z,69.40
2018-09-19T08:39:42.256Z,70.10
2018-09-19T08:42:11.073Z,70.40
2018-09-19T08:44:39.896Z,72.60
2018-09-19T08:47:08.627Z,71.50
2018-09-19T08:49:37.294Z,69.90
2018-09-19T08:52:06.019Z,69.30
2018-09-19T08:54:34.730Z,69.00
2018-09-19T08:57:03.502Z,67.30
2018-09-19T08:59:32.140Z,67.40
2018-09-19T09:02:01.667Z,65.90
2018-09-19T09:07:33.244Z,63.90
2018-09-19T09:10:01.927Z,61.80
2018-09-19T09:12:31.263Z,60.90
2018-09-19T09:14:59.949Z,59.30
2018-09-19T09:17:28.597Z,57.50
2018-09-19T09:19:57.285Z,58.20
2018-09-19T09:22:25.994Z,56.50
2018-09-19T09:24:54.659Z,59.40
2018-09-19T09:27:23.494Z,56.70
2018-09-19T09:29:52.260Z,54.80
2018-09-19T09:32:21.050Z,55.90
2018-09-19T09:34:49.920Z,54.10
2018-09-19T09:37:18.748Z,53.50
2018-09-19T09:39:47.563Z,52.60
2018-09-19T09:42:16.312Z,52.00
2018-09-19T09:44:45.081Z,50.70
2018-09-19T09:47:14.067Z,51.80
2018-09-19T09:49:42.642Z,49.40
2018-09-19T09:52:11.243Z,47.90
2018-09-19T09:54:39.895Z,48.80
2018-09-19T09:57:08.568Z,49.70
2018-09-19T09:59:37.447Z,50.00
2018-09-19T10:02:06.168Z,49.10
2018-09-19T10:04:34.851Z,46.70
2018-09-19T10:07:03.593Z,45.90
2018-09-19T10:09:32.280Z,45.00
2018-09-19T10:12:00.955Z,45.10
2018-09-19T10:14:29.623Z,44.50
2018-09-19T10:16:58.225Z,45.40
2018-09-19T10:19:26.815Z,42.90
2018-09-19T10:21:55.555Z,40.30
2018-09-19T10:24:24.165Z,41.20
2018-09-19T10:26:52.760Z,41.70
2018-09-19T10:29:21.358Z,42.30
2018-09-19T10:31:49.980Z,42.90
2018-09-19T10:34:18.555Z,40.00
2018-09-19T10:36:47.181Z,39.40
2018-09-19T10:39:15.784Z,39.80
2018-09-19T10:41:44.352Z,40.30
2018-09-19T10:44:13.024Z,39.80
2018-09-19T10:46:41.653Z,39.10
2018-09-19T10:49:10.351Z,38.90
2018-09-19T10:51:39.010Z,39.80
2018-09-19T10:54:08.356Z,39.50
2018-09-19T10:56:37.043Z,37.60
2018-09-19T10:59:05.845Z,39.20
2018-09-19T11:01:34.528Z,39.20
2018-09-19T11:04:03.252Z,39.50
2018-09-19T11:06:31.941Z,40.20
2018-09-19T11:09:00.549Z,38.70
2018-09-19T11:11:29.119Z,36.00
2018-09-19T11:13:57.732Z,34.10
2018-09-19T11:16:26.440Z,33.30
2018-09-19T11:18:55.140Z,32.40
2018-09-19T11:21:23.801Z,32.60
2018-09-19T11:23:52.662Z,33.00
2018-09-19T11:26:21.561Z,31.60
2018-09-19T11:28:50.392Z,32.10
2018-09-19T11:31:19.074Z,32.60
2018-09-19T11:33:47.718Z,31.70
2018-09-19T11:36:16.412Z,30.70
2018-09-19T11:38:45.036Z,30.50
2018-09-19T11:41:13.655Z,30.90
2018-09-19T11:43:42.245Z,31.00
2018-09-19T11:46:11.010Z,30.70
2018-09-19T11:48:39.726Z,30.30
2018-09-19T11:51:08.499Z,30.50
2018-09-19T11:53:37.196Z,29.10
2018-09-19T11:56:05.975Z,28.70
2018-09-19T11:58:34.670Z,28.70
2018-09-19T12:01:03.325Z,28.10
2018-09-19T12:03:31.967Z,29.10
2018-09-19T12:06:00.817Z,30.80
2018-09-19T12:08:29.689Z,31.50
2018-09-19T12:10:58.415Z,31.30
2018-09-19T12:13:27.148Z,30.80
2018-09-19T12:15:56.016Z,30.00
2018-09-19T12:18:24.860Z,31.20
2018-09-19T12:20:53.648Z,31.90
2018-09-19T12:23:22.249Z,32.10
2018-09-19T12:25:50.892Z,31.70
2018-09-19T12:28:19.611Z,31.40
2018-09-19T12:30:48.564Z,31.20
2018-09-19T12:33:17.374Z,30.60
2018-09-19T12:35:46.193Z,30.20
2018-09-19T12:38:15.931Z,29.20
2018-09-19T12:40:44.637Z,28.70
2018-09-19T12:43:13.390Z,28.40
2018-09-19T12:45:42.119Z,28.00
2018-09-19T12:48:10.898Z,27.90
2018-09-19T12:50:39.541Z,28.10
2018-09-19T12:53:08.193Z,28.20
2018-09-19T12:55:36.905Z,27.50
2018-09-19T12:58:11.210Z,28.20
2018-09-19T13:00:40.038Z,28.00
2018-09-19T13:03:08.755Z,27.90
2018-09-19T13:05:37.931Z,27.60
2018-09-19T13:08:08.483Z,28.00
2018-09-19T13:10:37.211Z,27.50
2018-09-19T13:13:05.943Z,27.70
2018-09-19T13:15:34.662Z,27.90
2018-09-19T13:18:03.653Z,28.00
2018-09-19T13:20:32.435Z,27.60
2018-09-19T13:23:01.438Z,29.10
2018-09-19T13:25:30.208Z,29.80
2018-09-19T13:27:58.960Z,31.70
2018-09-19T13:30:27.735Z,33.10
2018-09-19T13:32:56.464Z,34.40
2018-09-19T13:35:25.272Z,35.00
2018-09-19T13:37:54.016Z,36.60
2018-09-19T13:40:22.736Z,36.90
2018-09-19T13:42:52.631Z,37.40
2018-09-19T13:45:22.244Z,37.40
2018-09-19T13:47:56.542Z,38.30
2018-09-19T13:50:37.845Z,38.10
2018-09-19T13:53:06.833Z,38.80
2018-09-19T13:55:35.594Z,38.60
2018-09-19T13:58:04.299Z,37.80
2018-09-19T14:00:33.076Z,37.30
2018-09-19T14:03:01.766Z,37.10
2018-09-19T14:05:30.531Z,37.50
2018-09-19T14:07:59.385Z,36.90
2018-09-19T14:10:28.123Z,37.60
2018-09-19T14:12:56.943Z,37.30
2018-09-19T14:15:26.018Z,36.60
2018-09-19T14:17:54.749Z,36.90
2018-09-19T14:20:23.471Z,37.20
2018-09-19T14:22:52.343Z,37.50
2018-09-19T14:25:21.156Z,39.20
2018-09-19T14:27:49.969Z,40.90
2018-09-19T14:30:18.744Z,42.50
2018-09-19T14:32:48.291Z,43.00
2018-09-19T14:35:17.088Z,43.30
2018-09-19T14:37:46.659Z,43.60
2018-09-19T14:40:15.839Z,43.70
2018-09-19T14:42:44.571Z,44.00
2018-09-19T14:45:13.372Z,42.80
2018-09-19T14:47:42.156Z,42.80
2018-09-19T14:50:10.886Z,43.50
2018-09-19T14:52:40.330Z,43.80
2018-09-19T14:55:09.177Z,45.00
2018-09-19T14:57:38.020Z,44.00
2018-09-19T15:00:07.538Z,43.50
2018-09-19T15:02:41.907Z,43.70
2018-09-19T15:05:12.019Z,47.60
2018-09-19T15:07:46.117Z,48.50
2018-09-19T15:10:14.777Z,50.50
2018-09-19T15:12:43.541Z,50.40
2018-09-19T15:15:12.116Z,51.90
2018-09-19T15:17:46.367Z,55.00
2018-09-19T15:20:15.102Z,57.60
2018-09-19T15:22:43.751Z,60.60
2018-09-19T15:25:12.464Z,61.30
2018-09-19T15:27:41.122Z,60.80
2018-09-19T15:30:09.805Z,60.10
2018-09-19T15:32:39.317Z,60.90
2018-09-19T15:35:07.981Z,62.00
2018-09-19T15:37:36.751Z,63.00
2018-09-19T15:40:06.013Z,68.30
2018-09-19T15:42:35.823Z,76.60
2018-09-19T15:45:04.652Z,84.20
2018-09-19T15:56:34.148Z,91.00
2018-09-19T15:59:03.052Z,91.30
2018-09-19T16:01:31.908Z,91.70
2018-09-19T16:04:00.611Z,90.50
2018-09-19T16:06:30.317Z,90.20
2018-09-19T16:08:58.946Z,89.50
2018-09-19T16:11:27.626Z,89.70
2018-09-19T16:13:56.257Z,88.90
2018-09-19T16:16:25.189Z,90.30
2018-09-19T16:18:54.445Z,89.30
2018-09-19T16:21:24.196Z,90.30
2018-09-19T16:23:53.158Z,90.20
2018-09-19T16:26:21.916Z,90.40
2018-09-19T16:28:50.987Z,90.80
2018-09-19T16:31:19.815Z,91.10
2018-09-19T16:33:48.506Z,91.10
2018-09-19T16:36:17.254Z,91.20
2018-09-19T16:38:45.914Z,91.80
2018-09-19T16:41:14.714Z,92.30
2018-09-19T16:43:43.741Z,92.90
2018-09-19T16:46:12.597Z,93.10
2018-09-19T16:48:41.356Z,93.30
2018-09-19T16:51:10.236Z,93.60
2018-09-19T16:53:39.117Z,94.10
2018-09-19T16:56:07.929Z,94.70
2018-09-19T16:58:37.046Z,94.50
2018-09-19T17:01:05.911Z,94.50
2018-09-19T17:03:35.256Z,95.10
2018-09-19T17:06:05.969Z,94.80
2018-09-19T17:08:35.245Z,94.80
2018-09-19T17:11:05.509Z,94.20
2018-09-19T17:13:34.644Z,94.10
2018-09-19T17:16:03.939Z,94.20
2018-09-19T17:18:33.077Z,94.20
2018-09-19T17:21:05.762Z,94.10
2018-09-19T17:23:35.011Z,94.10
2018-09-19T17:26:04.426Z,94.60
2018-09-19T17:28:34.584Z,93.90
2018-09-19T17:31:04.861Z,94.10
2018-09-19T17:33:33.916Z,94.30
2018-09-19T17:36:05.301Z,94.40
2018-09-19T17:38:34.076Z,94.20
2018-09-19T17:41:02.894Z,94.40
2018-09-19T17:43:31.875Z,94.50
2018-09-19T17:46:00.887Z,94.50
2018-09-19T17:48:29.922Z,94.80
2018-09-19T17:50:59.491Z,95.00
2018-09-19T17:53:30.095Z,95.20
2018-09-19T17:55:59.346Z,95.40
2018-09-19T17:58:28.997Z,95.20
2018-09-19T18:01:00.343Z,95.20
2018-09-19T18:03:30.652Z,95.00
2018-09-19T18:05:59.541Z,94.90
2018-09-19T18:08:28.483Z,94.90
2018-09-19T18:10:57.197Z,94.80
2018-09-19T18:13:25.921Z,94.60
2018-09-19T18:15:54.809Z,94.40
2018-09-19T18:18:25.981Z,94.50
2018-09-19T18:20:55.985Z,95.00
2018-09-19T18:23:24.709Z,94.80
2018-09-19T18:25:53.445Z,94.60
2018-09-19T18:28:22.189Z,94.60
2018-09-19T18:30:51.229Z,95.00
2018-09-19T18:33:20.793Z,95.40
2018-09-19T18:35:49.708Z,95.50
2018-09-19T18:38:18.543Z,95.50
2018-09-19T18:40:47.389Z,95.30
2018-09-19T18:43:16.295Z,95.50
2018-09-19T18:45:45.195Z,95.60
2018-09-19T18:48:14.854Z,95.50
2018-09-19T18:50:43.936Z,95.30
2018-09-19T18:53:12.861Z,95.30
2018-09-19T18:55:41.968Z,95.20
2018-09-19T18:58:10.760Z,95.50
2018-09-19T19:00:39.650Z,95.60
2018-09-19T19:03:08.356Z,95.50
2018-09-19T19:05:37.156Z,95.40
2018-09-19T19:08:06.332Z,95.40
2018-09-19T19:10:35.721Z,95.50
2018-09-19T19:13:04.560Z,95.60
2018-09-19T19:15:33.389Z,95.60
2018-09-19T19:18:02.882Z,95.70
2018-09-19T19:20:33.429Z,95.80
2018-09-19T19:23:02.313Z,96.10
2018-09-19T19:25:31.065Z,96.00
2018-09-19T19:27:59.932Z,95.90
2018-09-19T19:30:28.890Z,95.80
2018-09-19T19:32:57.750Z,95.80
2018-09-19T19:35:27.617Z,95.80
2018-09-19T19:37:56.724Z,95.90
2018-09-19T19:40:25.986Z,95.60
2018-09-19T19:42:54.820Z,95.30
2018-09-19T19:45:23.588Z,95.20
2018-09-19T19:47:52.379Z,95.00
2018-09-19T19:50:21.136Z,95.10
2018-09-19T19:52:49.928Z,95.00
2018-09-19T19:55:18.696Z,95.10
2018-09-19T19:57:47.474Z,95.30
2018-09-19T20:00:16.276Z,95.20
2018-09-19T20:02:45.042Z,95.20
2018-09-19T20:05:13.763Z,94.90
2018-09-19T20:07:42.567Z,94.90
2018-09-19T20:10:11.848Z,95.10
2018-09-19T20:12:40.663Z,95.10
2018-09-19T20:15:09.476Z,95.10
2018-09-19T20:17:38.356Z,95.10
2018-09-19T20:20:07.656Z,95.10
2018-09-19T20:22:36.506Z,95.10
2018-09-19T20:25:05.417Z,95.20
2018-09-19T20:27:34.326Z,95.40
2018-09-19T20:30:04.056Z,95.40
2018-09-19T20:32:32.894Z,95.50
2018-09-19T20:35:01.797Z,95.60
2018-09-19T20:37:30.551Z,95.50
2018-09-19T20:39:59.303Z,95.50
2018-09-19T20:42:28.201Z,95.60
2018-09-19T20:44:56.876Z,95.60
2018-09-19T20:47:25.701Z,95.70
2018-09-19T20:49:54.431Z,95.80
2018-09-19T20:52:23.217Z,96.00
2018-09-19T20:54:52.005Z,96.00
2018-09-19T20:57:20.757Z,96.10
2018-09-19T20:59:49.603Z,96.10
2018-09-19T21:02:18.319Z,96.00
2018-09-19T21:04:47.079Z,95.70
2018-09-19T21:07:15.927Z,95.40
2018-09-19T21:09:45.155Z,95.10
2018-09-19T21:12:13.922Z,95.00
2018-09-19T21:14:42.909Z,95.30
2018-09-19T21:17:11.683Z,95.30
2018-09-19T21:19:40.375Z,95.30
2018-09-19T21:22:09.240Z,95.40
2018-09-19T21:24:37.975Z,95.50
2018-09-19T21:27:06.740Z,95.60
2018-09-19T21:29:35.401Z,95.70
2018-09-19T21:32:04.102Z,95.80
2018-09-19T21:34:32.859Z,95.90
2018-09-19T21:37:01.676Z,95.90
2018-09-19T21:39:30.666Z,96.60
2018-09-19T21:41:59.377Z,95.90
2018-09-19T21:44:28.038Z,96.00
2018-09-19T21:46:56.708Z,96.60
2018-09-19T21:49:25.399Z,95.90
2018-09-19T21:51:54.061Z,96.00
2018-09-19T21:54:22.763Z,96.00
2018-09-19T21:56:51.510Z,96.10
2018-09-19T21:59:20.221Z,96.00
2018-09-19T22:01:53.504Z,95.70
2018-09-19T22:04:22.256Z,95.80
2018-09-19T22:06:50.966Z,95.70
2018-09-19T22:09:19.611Z,95.60
2018-09-19T22:11:48.271Z,95.60
2018-09-19T22:14:16.913Z,95.60
2018-09-19T22:16:45.868Z,95.60
2018-09-19T22:19:14.536Z,94.30
2018-09-19T22:21:43.213Z,93.90
2018-09-19T22:24:11.888Z,94.00
2018-09-19T22:26:40.536Z,94.50
2018-09-19T22:29:09.189Z,94.30
2018-09-19T22:31:37.893Z,94.40
2018-09-19T22:34:06.662Z,94.50
2018-09-19T22:36:36.283Z,94.60
2018-09-19T22:39:07.447Z,94.70
2018-09-19T22:41:36.997Z,94.50
2018-09-19T22:44:05.896Z,94.20
2018-09-19T22:46:34.669Z,93.80
2018-09-19T22:49:03.383Z,93.80
2018-09-19T22:51:32.561Z,94.10
2018-09-19T22:54:01.302Z,94.20
2018-09-19T22:56:29.981Z,94.60
2018-09-19T22:59:03.783Z,94.80
2018-09-19T23:01:33.078Z,94.90
2018-09-19T23:04:02.806Z,94.90
2018-09-19T23:06:31.640Z,95.80
2018-09-19T23:09:00.284Z,95.10
2018-09-19T23:11:28.966Z,95.30
2018-09-19T23:13:57.614Z,95.40
2018-09-19T23:16:26.280Z,95.50
2018-09-19T23:18:54.999Z,95.60
2018-09-19T23:21:23.675Z,95.50
2018-09-19T23:23:52.395Z,95.50
2018-09-19T23:26:21.035Z,95.40
2018-09-19T23:28:49.648Z,95.40
2018-09-19T23:31:18.249Z,95.40
2018-09-19T23:33:46.888Z,95.40
2018-09-19T23:36:15.560Z,95.50
2018-09-19T23:38:44.305Z,95.40
2018-09-19T23:41:13.028Z,95.50
2018-09-19T23:43:41.669Z,95.60
2018-09-19T23:46:10.568Z,95.60
2018-09-19T23:48:46.055Z,95.40
2018-09-19T23:51:14.704Z,95.40
2018-09-19T23:53:43.356Z,95.60
2018-09-19T23:56:12.116Z,95.70
2018-09-19T23:58:40.769Z,96.10
